sensor_id;sensor_type;location;lat;lon;timestamp;P1;durP1;ratioP1;P2;durP2;ratioP2
9761;SDS011;4920;49.594;11.022;2024-01-30T00:00:04;13.20;;;9.23;;
9761;SDS011;4920;49.594;11.022;2024-01-30T00:02:34;14.57;;;8.80;;
9761;SDS011;4920;49.594;11.022;2024-01-30T00:05:03;15.20;;;8.37;;
9761;SDS011;4920;49.594;11.022;2024-01-30T00:07:33;12.40;;;8.60;;
9761;SDS011;4920;49.594;11.022;2024-01-30T00:10:04;14.73;;;8.43;;
9761;SDS011;4920;49.594;11.022;2024-01-30T00:12:33;12.73;;;8.50;;
9761;SDS011;4920;49.594;11.022;2024-01-30T00:15:03;16.70;;;8.17;;
9761;SDS011;4920;49.594;11.022;2024-01-30T00:17:35;13.03;;;7.90;;
9761;SDS011;4920;49.594;11.022;2024-01-30T00:20:05;11.57;;;7.70;;
9761;SDS011;4920;49.594;11.022;2024-01-30T00:22:36;13.37;;;7.83;;
9761;SDS011;4920;49.594;11.022;2024-01-30T00:25:07;10.93;;;7.17;;
9761;SDS011;4920;49.594;11.022;2024-01-30T00:27:36;14.80;;;8.40;;
9761;SDS011;4920;49.594;11.022;2024-01-30T00:30:06;14.13;;;8.40;;
9761;SDS011;4920;49.594;11.022;2024-01-30T00:32:36;13.97;;;7.30;;
9761;SDS011;4920;49.594;11.022;2024-01-30T00:35:05;13.27;;;7.70;;
9761;SDS011;4920;49.594;11.022;2024-01-30T00:37:36;12.70;;;7.57;;
9761;SDS011;4920;49.594;11.022;2024-01-30T00:40:08;14.93;;;7.90;;
9761;SDS011;4920;49.594;11.022;2024-01-30T00:42:42;11.70;;;7.10;;
9761;SDS011;4920;49.594;11.022;2024-01-30T00:45:12;14.40;;;8.50;;
9761;SDS011;4920;49.594;11.022;2024-01-30T00:47:42;10.73;;;7.40;;
9761;SDS011;4920;49.594;11.022;2024-01-30T00:50:11;12.53;;;8.03;;
9761;SDS011;4920;49.594;11.022;2024-01-30T00:52:40;12.87;;;7.90;;
9761;SDS011;4920;49.594;11.022;2024-01-30T00:55:14;9.83;;;7.10;;
9761;SDS011;4920;49.594;11.022;2024-01-30T00:57:42;8.37;;;6.73;;
9761;SDS011;4920;49.594;11.022;2024-01-30T01:00:12;10.13;;;7.60;;
9761;SDS011;4920;49.594;11.022;2024-01-30T01:02:44;9.63;;;6.90;;
9761;SDS011;4920;49.594;11.022;2024-01-30T01:05:13;10.13;;;7.30;;
9761;SDS011;4920;49.594;11.022;2024-01-30T01:07:41;11.97;;;7.70;;
9761;SDS011;4920;49.594;11.022;2024-01-30T01:10:10;11.30;;;7.53;;
9761;SDS011;4920;49.594;11.022;2024-01-30T01:12:42;11.53;;;7.77;;
9761;SDS011;4920;49.594;11.022;2024-01-30T01:15:11;12.17;;;7.73;;
9761;SDS011;4920;49.594;11.022;2024-01-30T01:17:40;11.67;;;7.67;;
9761;SDS011;4920;49.594;11.022;2024-01-30T01:20:10;11.07;;;7.40;;
9761;SDS011;4920;49.594;11.022;2024-01-30T01:22:39;9.77;;;7.30;;
9761;SDS011;4920;49.594;11.022;2024-01-30T01:25:08;11.63;;;7.70;;
9761;SDS011;4920;49.594;11.022;2024-01-30T01:27:37;13.63;;;7.70;;
9761;SDS011;4920;49.594;11.022;2024-01-30T01:30:11;12.17;;;7.93;;
9761;SDS011;4920;49.594;11.022;2024-01-30T01:32:45;12.30;;;7.80;;
9761;SDS011;4920;49.594;11.022;2024-01-30T01:35:17;13.50;;;8.27;;
9761;SDS011;4920;49.594;11.022;2024-01-30T01:37:46;12.10;;;7.70;;
9761;SDS011;4920;49.594;11.022;2024-01-30T01:40:22;12.87;;;7.67;;
9761;SDS011;4920;49.594;11.022;2024-01-30T01:42:51;10.77;;;7.37;;
9761;SDS011;4920;49.594;11.022;2024-01-30T01:45:23;11.83;;;7.27;;
9761;SDS011;4920;49.594;11.022;2024-01-30T01:47:52;13.50;;;7.40;;
9761;SDS011;4920;49.594;11.022;2024-01-30T01:50:21;10.10;;;7.03;;
9761;SDS011;4920;49.594;11.022;2024-01-30T01:52:52;9.70;;;6.63;;
9761;SDS011;4920;49.594;11.022;2024-01-30T01:55:22;10.57;;;6.93;;
9761;SDS011;4920;49.594;11.022;2024-01-30T01:57:53;11.40;;;6.90;;
9761;SDS011;4920;49.594;11.022;2024-01-30T02:00:24;12.83;;;6.57;;
9761;SDS011;4920;49.594;11.022;2024-01-30T02:02:53;10.23;;;6.37;;
9761;SDS011;4920;49.594;11.022;2024-01-30T02:05:23;10.37;;;6.33;;
9761;SDS011;4920;49.594;11.022;2024-01-30T02:07:53;10.77;;;6.10;;
9761;SDS011;4920;49.594;11.022;2024-01-30T02:10:23;11.40;;;6.37;;
9761;SDS011;4920;49.594;11.022;2024-01-30T02:12:52;9.70;;;5.83;;
9761;SDS011;4920;49.594;11.022;2024-01-30T02:15:21;10.07;;;6.17;;
9761;SDS011;4920;49.594;11.022;2024-01-30T02:17:52;11.87;;;5.77;;
9761;SDS011;4920;49.594;11.022;2024-01-30T02:20:21;9.70;;;5.73;;
9761;SDS011;4920;49.594;11.022;2024-01-30T02:22:53;11.80;;;6.53;;
9761;SDS011;4920;49.594;11.022;2024-01-30T02:25:30;10.13;;;6.13;;
9761;SDS011;4920;49.594;11.022;2024-01-30T02:27:59;9.80;;;6.00;;
9761;SDS011;4920;49.594;11.022;2024-01-30T02:30:28;9.53;;;6.07;;
9761;SDS011;4920;49.594;11.022;2024-01-30T02:32:57;10.80;;;6.73;;
9761;SDS011;4920;49.594;11.022;2024-01-30T02:35:26;10.50;;;6.53;;
9761;SDS011;4920;49.594;11.022;2024-01-30T02:37:57;11.60;;;6.03;;
9761;SDS011;4920;49.594;11.022;2024-01-30T02:40:26;10.27;;;6.33;;
9761;SDS011;4920;49.594;11.022;2024-01-30T02:42:55;11.13;;;6.33;;
9761;SDS011;4920;49.594;11.022;2024-01-30T02:45:24;8.10;;;6.20;;
9761;SDS011;4920;49.594;11.022;2024-01-30T02:47:54;13.37;;;6.97;;
9761;SDS011;4920;49.594;11.022;2024-01-30T02:50:23;9.70;;;6.97;;
9761;SDS011;4920;49.594;11.022;2024-01-30T02:52:51;12.73;;;7.40;;
9761;SDS011;4920;49.594;11.022;2024-01-30T02:55:22;11.43;;;7.07;;
9761;SDS011;4920;49.594;11.022;2024-01-30T02:57:51;11.23;;;6.90;;
9761;SDS011;4920;49.594;11.022;2024-01-30T03:00:20;11.33;;;7.10;;
9761;SDS011;4920;49.594;11.022;2024-01-30T03:02:49;10.27;;;7.00;;
9761;SDS011;4920;49.594;11.022;2024-01-30T03:05:17;11.83;;;7.23;;
9761;SDS011;4920;49.594;11.022;2024-01-30T03:07:46;12.43;;;7.20;;
9761;SDS011;4920;49.594;11.022;2024-01-30T03:10:15;10.30;;;6.70;;
9761;SDS011;4920;49.594;11.022;2024-01-30T03:12:45;9.67;;;6.83;;
9761;SDS011;4920;49.594;11.022;2024-01-30T03:15:15;11.67;;;6.47;;
9761;SDS011;4920;49.594;11.022;2024-01-30T03:17:43;12.47;;;6.90;;
9761;SDS011;4920;49.594;11.022;2024-01-30T03:20:13;11.97;;;7.07;;
9761;SDS011;4920;49.594;11.022;2024-01-30T03:22:42;11.00;;;6.03;;
9761;SDS011;4920;49.594;11.022;2024-01-30T03:25:10;10.57;;;6.47;;
9761;SDS011;4920;49.594;11.022;2024-01-30T03:27:39;8.97;;;5.97;;
9761;SDS011;4920;49.594;11.022;2024-01-30T03:30:10;9.70;;;5.83;;
9761;SDS011;4920;49.594;11.022;2024-01-30T03:32:39;11.83;;;6.53;;
9761;SDS011;4920;49.594;11.022;2024-01-30T03:35:08;11.87;;;7.13;;
9761;SDS011;4920;49.594;11.022;2024-01-30T03:37:38;9.63;;;6.40;;
9761;SDS011;4920;49.594;11.022;2024-01-30T03:40:07;10.00;;;6.10;;
9761;SDS011;4920;49.594;11.022;2024-01-30T03:42:36;9.57;;;6.17;;
9761;SDS011;4920;49.594;11.022;2024-01-30T03:45:06;9.37;;;6.27;;
9761;SDS011;4920;49.594;11.022;2024-01-30T03:47:37;9.87;;;6.13;;
9761;SDS011;4920;49.594;11.022;2024-01-30T03:50:06;8.70;;;5.83;;
9761;SDS011;4920;49.594;11.022;2024-01-30T03:52:35;10.40;;;6.10;;
9761;SDS011;4920;49.594;11.022;2024-01-30T03:55:04;9.40;;;6.03;;
9761;SDS011;4920;49.594;11.022;2024-01-30T03:57:33;9.67;;;5.70;;
9761;SDS011;4920;49.594;11.022;2024-01-30T04:00:02;10.13;;;5.80;;
9761;SDS011;4920;49.594;11.022;2024-01-30T04:02:39;9.20;;;5.90;;
9761;SDS011;4920;49.594;11.022;2024-01-30T04:05:08;10.83;;;6.20;;
9761;SDS011;4920;49.594;11.022;2024-01-30T04:07:36;10.20;;;6.43;;
9761;SDS011;4920;49.594;11.022;2024-01-30T04:10:06;10.23;;;6.20;;
9761;SDS011;4920;49.594;11.022;2024-01-30T04:12:36;9.33;;;5.77;;
9761;SDS011;4920;49.594;11.022;2024-01-30T04:15:05;9.17;;;5.43;;
9761;SDS011;4920;49.594;11.022;2024-01-30T04:17:34;8.93;;;5.83;;
9761;SDS011;4920;49.594;11.022;2024-01-30T04:20:06;8.50;;;5.50;;
9761;SDS011;4920;49.594;11.022;2024-01-30T04:22:35;9.33;;;5.60;;
9761;SDS011;4920;49.594;11.022;2024-01-30T04:25:04;8.10;;;5.30;;
9761;SDS011;4920;49.594;11.022;2024-01-30T04:27:33;9.63;;;5.80;;
9761;SDS011;4920;49.594;11.022;2024-01-30T04:30:02;8.23;;;5.57;;
9761;SDS011;4920;49.594;11.022;2024-01-30T04:32:32;7.67;;;5.77;;
9761;SDS011;4920;49.594;11.022;2024-01-30T04:35:01;8.30;;;5.50;;
9761;SDS011;4920;49.594;11.022;2024-01-30T04:37:37;11.23;;;5.77;;
9761;SDS011;4920;49.594;11.022;2024-01-30T04:40:06;8.77;;;5.77;;
9761;SDS011;4920;49.594;11.022;2024-01-30T04:42:36;8.47;;;5.80;;
9761;SDS011;4920;49.594;11.022;2024-01-30T04:45:06;10.50;;;6.17;;
9761;SDS011;4920;49.594;11.022;2024-01-30T04:47:35;10.40;;;5.93;;
9761;SDS011;4920;49.594;11.022;2024-01-30T04:50:06;8.70;;;5.67;;
9761;SDS011;4920;49.594;11.022;2024-01-30T04:52:37;8.03;;;5.80;;
9761;SDS011;4920;49.594;11.022;2024-01-30T04:55:06;10.53;;;6.50;;
9761;SDS011;4920;49.594;11.022;2024-01-30T04:57:35;8.00;;;5.70;;
9761;SDS011;4920;49.594;11.022;2024-01-30T05:00:05;8.40;;;5.70;;
9761;SDS011;4920;49.594;11.022;2024-01-30T05:02:35;9.60;;;6.43;;
9761;SDS011;4920;49.594;11.022;2024-01-30T05:05:04;9.30;;;6.17;;
9761;SDS011;4920;49.594;11.022;2024-01-30T05:07:34;9.30;;;6.13;;
9761;SDS011;4920;49.594;11.022;2024-01-30T05:10:05;9.53;;;6.17;;
9761;SDS011;4920;49.594;11.022;2024-01-30T05:12:35;12.50;;;6.50;;
9761;SDS011;4920;49.594;11.022;2024-01-30T05:15:04;10.90;;;5.80;;
9761;SDS011;4920;49.594;11.022;2024-01-30T05:17:33;10.30;;;6.43;;
9761;SDS011;4920;49.594;11.022;2024-01-30T05:20:02;11.23;;;7.10;;
9761;SDS011;4920;49.594;11.022;2024-01-30T05:22:31;15.10;;;7.40;;
9761;SDS011;4920;49.594;11.022;2024-01-30T05:25:02;10.43;;;6.70;;
9761;SDS011;4920;49.594;11.022;2024-01-30T05:27:32;10.63;;;6.77;;
9761;SDS011;4920;49.594;11.022;2024-01-30T05:30:01;10.43;;;6.87;;
9761;SDS011;4920;49.594;11.022;2024-01-30T05:32:30;10.37;;;6.80;;
9761;SDS011;4920;49.594;11.022;2024-01-30T05:34:59;10.83;;;6.27;;
9761;SDS011;4920;49.594;11.022;2024-01-30T05:37:28;9.10;;;6.10;;
9761;SDS011;4920;49.594;11.022;2024-01-30T05:39:57;10.20;;;6.50;;
9761;SDS011;4920;49.594;11.022;2024-01-30T05:42:28;8.37;;;5.87;;
9761;SDS011;4920;49.594;11.022;2024-01-30T05:44:56;8.00;;;5.80;;
9761;SDS011;4920;49.594;11.022;2024-01-30T05:47:25;12.53;;;6.07;;
9761;SDS011;4920;49.594;11.022;2024-01-30T05:49:54;11.07;;;5.70;;
9761;SDS011;4920;49.594;11.022;2024-01-30T05:52:23;9.50;;;6.23;;
9761;SDS011;4920;49.594;11.022;2024-01-30T05:54:52;7.80;;;5.60;;
9761;SDS011;4920;49.594;11.022;2024-01-30T05:57:21;9.23;;;6.00;;
9761;SDS011;4920;49.594;11.022;2024-01-30T05:59:52;10.03;;;5.40;;
9761;SDS011;4920;49.594;11.022;2024-01-30T06:02:21;8.57;;;5.77;;
9761;SDS011;4920;49.594;11.022;2024-01-30T06:04:50;7.83;;;5.17;;
9761;SDS011;4920;49.594;11.022;2024-01-30T06:07:19;9.97;;;5.43;;
9761;SDS011;4920;49.594;11.022;2024-01-30T06:09:49;9.37;;;6.13;;
9761;SDS011;4920;49.594;11.022;2024-01-30T06:12:18;10.13;;;5.80;;
9761;SDS011;4920;49.594;11.022;2024-01-30T06:14:47;8.83;;;5.87;;
9761;SDS011;4920;49.594;11.022;2024-01-30T06:17:17;9.77;;;6.13;;
9761;SDS011;4920;49.594;11.022;2024-01-30T06:19:46;9.77;;;5.70;;
9761;SDS011;4920;49.594;11.022;2024-01-30T06:22:15;9.87;;;6.27;;
9761;SDS011;4920;49.594;11.022;2024-01-30T06:24:44;10.20;;;6.17;;
9761;SDS011;4920;49.594;11.022;2024-01-30T06:27:14;9.00;;;5.80;;
9761;SDS011;4920;49.594;11.022;2024-01-30T06:29:44;8.73;;;5.97;;
9761;SDS011;4920;49.594;11.022;2024-01-30T06:32:14;13.90;;;6.67;;
9761;SDS011;4920;49.594;11.022;2024-01-30T06:34:44;9.03;;;6.13;;
9761;SDS011;4920;49.594;11.022;2024-01-30T06:37:13;9.13;;;6.23;;
9761;SDS011;4920;49.594;11.022;2024-01-30T06:39:42;15.33;;;7.00;;
9761;SDS011;4920;49.594;11.022;2024-01-30T06:42:12;12.73;;;7.33;;
9761;SDS011;4920;49.594;11.022;2024-01-30T06:44:41;9.33;;;6.80;;
9761;SDS011;4920;49.594;11.022;2024-01-30T06:47:10;11.17;;;6.87;;
9761;SDS011;4920;49.594;11.022;2024-01-30T06:49:39;9.73;;;6.53;;
9761;SDS011;4920;49.594;11.022;2024-01-30T06:52:10;11.70;;;7.27;;
9761;SDS011;4920;49.594;11.022;2024-01-30T06:54:39;10.93;;;7.57;;
9761;SDS011;4920;49.594;11.022;2024-01-30T06:57:08;12.37;;;7.37;;
9761;SDS011;4920;49.594;11.022;2024-01-30T06:59:39;13.60;;;8.27;;
9761;SDS011;4920;49.594;11.022;2024-01-30T07:02:10;15.20;;;9.03;;
9761;SDS011;4920;49.594;11.022;2024-01-30T07:04:39;12.73;;;7.67;;
9761;SDS011;4920;49.594;11.022;2024-01-30T07:07:14;13.13;;;8.83;;
9761;SDS011;4920;49.594;11.022;2024-01-30T07:09:43;13.23;;;8.67;;
9761;SDS011;4920;49.594;11.022;2024-01-30T07:12:14;13.40;;;8.47;;
9761;SDS011;4920;49.594;11.022;2024-01-30T07:14:43;13.53;;;7.80;;
9761;SDS011;4920;49.594;11.022;2024-01-30T07:17:12;13.30;;;8.73;;
9761;SDS011;4920;49.594;11.022;2024-01-30T07:19:41;13.93;;;8.77;;
9761;SDS011;4920;49.594;11.022;2024-01-30T07:22:10;13.37;;;8.60;;
9761;SDS011;4920;49.594;11.022;2024-01-30T07:24:43;13.83;;;8.50;;
9761;SDS011;4920;49.594;11.022;2024-01-30T07:27:15;13.20;;;8.50;;
9761;SDS011;4920;49.594;11.022;2024-01-30T07:29:45;14.43;;;8.90;;
9761;SDS011;4920;49.594;11.022;2024-01-30T07:32:13;12.57;;;9.07;;
9761;SDS011;4920;49.594;11.022;2024-01-30T07:34:43;14.67;;;8.87;;
9761;SDS011;4920;49.594;11.022;2024-01-30T07:37:29;16.43;;;9.57;;
9761;SDS011;4920;49.594;11.022;2024-01-30T07:39:59;15.63;;;9.27;;
9761;SDS011;4920;49.594;11.022;2024-01-30T07:42:30;16.80;;;8.63;;
9761;SDS011;4920;49.594;11.022;2024-01-30T07:44:59;13.37;;;9.27;;
9761;SDS011;4920;49.594;11.022;2024-01-30T07:47:29;13.73;;;8.40;;
9761;SDS011;4920;49.594;11.022;2024-01-30T07:49:58;12.73;;;8.43;;
9761;SDS011;4920;49.594;11.022;2024-01-30T07:52:27;13.73;;;8.73;;
9761;SDS011;4920;49.594;11.022;2024-01-30T07:55:00;14.50;;;8.93;;
9761;SDS011;4920;49.594;11.022;2024-01-30T07:57:30;11.77;;;8.43;;
9761;SDS011;4920;49.594;11.022;2024-01-30T07:59:59;12.30;;;8.33;;
9761;SDS011;4920;49.594;11.022;2024-01-30T08:02:32;13.70;;;8.83;;
9761;SDS011;4920;49.594;11.022;2024-01-30T08:05:01;13.97;;;8.50;;
9761;SDS011;4920;49.594;11.022;2024-01-30T08:07:30;12.13;;;8.10;;
9761;SDS011;4920;49.594;11.022;2024-01-30T08:10:00;12.83;;;7.57;;
9761;SDS011;4920;49.594;11.022;2024-01-30T08:12:29;13.93;;;8.97;;
9761;SDS011;4920;49.594;11.022;2024-01-30T08:14:58;14.60;;;9.50;;
9761;SDS011;4920;49.594;11.022;2024-01-30T08:17:27;14.53;;;9.13;;
9761;SDS011;4920;49.594;11.022;2024-01-30T08:19:56;12.17;;;8.67;;
9761;SDS011;4920;49.594;11.022;2024-01-30T08:22:26;13.80;;;9.00;;
9761;SDS011;4920;49.594;11.022;2024-01-30T08:24:55;13.13;;;8.87;;
9761;SDS011;4920;49.594;11.022;2024-01-30T08:27:25;14.87;;;9.53;;
9761;SDS011;4920;49.594;11.022;2024-01-30T08:29:54;18.53;;;10.07;;
9761;SDS011;4920;49.594;11.022;2024-01-30T08:32:23;15.53;;;9.77;;
9761;SDS011;4920;49.594;11.022;2024-01-30T08:34:52;14.47;;;10.13;;
9761;SDS011;4920;49.594;11.022;2024-01-30T08:37:21;17.87;;;10.47;;
9761;SDS011;4920;49.594;11.022;2024-01-30T08:39:50;17.27;;;10.83;;
9761;SDS011;4920;49.594;11.022;2024-01-30T08:42:19;17.40;;;10.90;;
9761;SDS011;4920;49.594;11.022;2024-01-30T08:44:51;13.47;;;10.30;;
9761;SDS011;4920;49.594;11.022;2024-01-30T08:47:21;16.47;;;10.17;;
9761;SDS011;4920;49.594;11.022;2024-01-30T08:49:50;14.50;;;10.33;;
9761;SDS011;4920;49.594;11.022;2024-01-30T08:52:19;16.17;;;10.47;;
9761;SDS011;4920;49.594;11.022;2024-01-30T08:54:48;14.50;;;10.57;;
9761;SDS011;4920;49.594;11.022;2024-01-30T08:57:17;16.53;;;10.40;;
9761;SDS011;4920;49.594;11.022;2024-01-30T08:59:45;17.20;;;11.33;;
9761;SDS011;4920;49.594;11.022;2024-01-30T09:02:16;14.73;;;10.80;;
9761;SDS011;4920;49.594;11.022;2024-01-30T09:04:45;21.43;;;11.27;;
9761;SDS011;4920;49.594;11.022;2024-01-30T09:07:14;15.07;;;11.33;;
9761;SDS011;4920;49.594;11.022;2024-01-30T09:09:43;17.27;;;11.13;;
9761;SDS011;4920;49.594;11.022;2024-01-30T09:12:12;17.23;;;11.67;;
9761;SDS011;4920;49.594;11.022;2024-01-30T09:14:42;18.47;;;12.20;;
9761;SDS011;4920;49.594;11.022;2024-01-30T09:17:10;18.37;;;11.40;;
9761;SDS011;4920;49.594;11.022;2024-01-30T09:19:41;16.63;;;11.03;;
9761;SDS011;4920;49.594;11.022;2024-01-30T09:22:10;16.23;;;11.27;;
9761;SDS011;4920;49.594;11.022;2024-01-30T09:24:40;14.17;;;11.10;;
9761;SDS011;4920;49.594;11.022;2024-01-30T09:27:09;16.87;;;11.10;;
9761;SDS011;4920;49.594;11.022;2024-01-30T09:29:38;16.90;;;11.70;;
9761;SDS011;4920;49.594;11.022;2024-01-30T09:32:07;17.43;;;12.10;;
9761;SDS011;4920;49.594;11.022;2024-01-30T09:34:36;15.47;;;11.50;;
9761;SDS011;4920;49.594;11.022;2024-01-30T09:37:08;18.43;;;12.00;;
9761;SDS011;4920;49.594;11.022;2024-01-30T09:39:37;14.50;;;11.40;;
9761;SDS011;4920;49.594;11.022;2024-01-30T09:42:09;16.23;;;11.63;;
9761;SDS011;4920;49.594;11.022;2024-01-30T09:44:46;17.67;;;10.83;;
9761;SDS011;4920;49.594;11.022;2024-01-30T09:47:18;15.17;;;11.57;;
9761;SDS011;4920;49.594;11.022;2024-01-30T09:49:47;17.80;;;11.90;;
9761;SDS011;4920;49.594;11.022;2024-01-30T09:52:20;15.93;;;11.03;;
9761;SDS011;4920;49.594;11.022;2024-01-30T09:54:49;19.33;;;12.03;;
9761;SDS011;4920;49.594;11.022;2024-01-30T09:57:20;16.23;;;11.77;;
9761;SDS011;4920;49.594;11.022;2024-01-30T09:59:49;15.13;;;11.70;;
9761;SDS011;4920;49.594;11.022;2024-01-30T10:02:21;18.03;;;12.03;;
9761;SDS011;4920;49.594;11.022;2024-01-30T10:04:50;16.37;;;12.10;;
9761;SDS011;4920;49.594;11.022;2024-01-30T10:07:22;15.07;;;11.33;;
9761;SDS011;4920;49.594;11.022;2024-01-30T10:09:50;16.47;;;11.87;;
9761;SDS011;4920;49.594;11.022;2024-01-30T10:12:22;19.57;;;12.50;;
9761;SDS011;4920;49.594;11.022;2024-01-30T10:14:51;17.73;;;11.90;;
9761;SDS011;4920;49.594;11.022;2024-01-30T10:17:20;16.80;;;11.87;;
9761;SDS011;4920;49.594;11.022;2024-01-30T10:19:59;18.30;;;12.60;;
9761;SDS011;4920;49.594;11.022;2024-01-30T10:22:30;17.93;;;11.73;;
9761;SDS011;4920;49.594;11.022;2024-01-30T10:24:59;16.40;;;12.20;;
9761;SDS011;4920;49.594;11.022;2024-01-30T10:27:32;18.03;;;12.60;;
9761;SDS011;4920;49.594;11.022;2024-01-30T10:30:01;17.60;;;12.23;;
9761;SDS011;4920;49.594;11.022;2024-01-30T10:32:31;17.90;;;12.77;;
9761;SDS011;4920;49.594;11.022;2024-01-30T10:35:00;17.67;;;12.53;;
9761;SDS011;4920;49.594;11.022;2024-01-30T10:37:30;17.70;;;12.53;;
9761;SDS011;4920;49.594;11.022;2024-01-30T10:40:02;17.00;;;12.67;;
9761;SDS011;4920;49.594;11.022;2024-01-30T10:42:33;19.60;;;12.93;;
9761;SDS011;4920;49.594;11.022;2024-01-30T10:45:05;21.40;;;12.60;;
9761;SDS011;4920;49.594;11.022;2024-01-30T10:47:36;18.87;;;12.53;;
9761;SDS011;4920;49.594;11.022;2024-01-30T10:50:05;18.53;;;12.97;;
9761;SDS011;4920;49.594;11.022;2024-01-30T10:52:39;18.47;;;12.93;;
9761;SDS011;4920;49.594;11.022;2024-01-30T10:55:10;17.07;;;12.30;;
9761;SDS011;4920;49.594;11.022;2024-01-30T10:57:39;18.17;;;12.97;;
9761;SDS011;4920;49.594;11.022;2024-01-30T11:00:09;19.53;;;12.53;;
9761;SDS011;4920;49.594;11.022;2024-01-30T11:02:40;22.00;;;12.87;;
9761;SDS011;4920;49.594;11.022;2024-01-30T11:05:11;17.13;;;12.67;;
9761;SDS011;4920;49.594;11.022;2024-01-30T11:07:44;18.47;;;14.33;;
9761;SDS011;4920;49.594;11.022;2024-01-30T11:10:13;18.90;;;12.63;;
9761;SDS011;4920;49.594;11.022;2024-01-30T11:12:42;17.87;;;12.80;;
9761;SDS011;4920;49.594;11.022;2024-01-30T11:15:14;20.03;;;13.17;;
9761;SDS011;4920;49.594;11.022;2024-01-30T11:17:44;23.07;;;12.83;;
9761;SDS011;4920;49.594;11.022;2024-01-30T11:20:20;19.37;;;12.77;;
9761;SDS011;4920;49.594;11.022;2024-01-30T11:22:53;17.67;;;12.80;;
9761;SDS011;4920;49.594;11.022;2024-01-30T11:25:23;17.93;;;12.30;;
9761;SDS011;4920;49.594;11.022;2024-01-30T11:27:54;16.70;;;12.83;;
9761;SDS011;4920;49.594;11.022;2024-01-30T11:30:24;22.03;;;14.07;;
9761;SDS011;4920;49.594;11.022;2024-01-30T11:33:04;19.27;;;14.17;;
9761;SDS011;4920;49.594;11.022;2024-01-30T11:35:35;20.80;;;12.90;;
9761;SDS011;4920;49.594;11.022;2024-01-30T11:38:09;17.77;;;12.47;;
9761;SDS011;4920;49.594;11.022;2024-01-30T11:40:38;17.10;;;13.03;;
9761;SDS011;4920;49.594;11.022;2024-01-30T11:43:08;16.70;;;12.13;;
9761;SDS011;4920;49.594;11.022;2024-01-30T11:45:38;21.73;;;12.53;;
9761;SDS011;4920;49.594;11.022;2024-01-30T11:48:07;26.00;;;13.03;;
9761;SDS011;4920;49.594;11.022;2024-01-30T11:50:38;18.23;;;13.00;;
9761;SDS011;4920;49.594;11.022;2024-01-30T11:53:10;17.33;;;11.90;;
9761;SDS011;4920;49.594;11.022;2024-01-30T11:55:39;18.43;;;11.83;;
9761;SDS011;4920;49.594;11.022;2024-01-30T11:58:08;20.20;;;12.50;;
9761;SDS011;4920;49.594;11.022;2024-01-30T12:00:37;21.30;;;12.70;;
9761;SDS011;4920;49.594;11.022;2024-01-30T12:03:06;18.00;;;13.37;;
9761;SDS011;4920;49.594;11.022;2024-01-30T12:05:35;22.83;;;13.13;;
9761;SDS011;4920;49.594;11.022;2024-01-30T12:08:15;18.87;;;13.50;;
9761;SDS011;4920;49.594;11.022;2024-01-30T12:10:44;17.50;;;12.23;;
9761;SDS011;4920;49.594;11.022;2024-01-30T12:13:13;18.53;;;13.03;;
9761;SDS011;4920;49.594;11.022;2024-01-30T12:15:43;22.20;;;12.93;;
9761;SDS011;4920;49.594;11.022;2024-01-30T12:18:12;16.90;;;12.30;;
9761;SDS011;4920;49.594;11.022;2024-01-30T12:20:41;18.27;;;12.87;;
9761;SDS011;4920;49.594;11.022;2024-01-30T12:23:11;21.50;;;13.00;;
9761;SDS011;4920;49.594;11.022;2024-01-30T12:25:42;17.27;;;12.30;;
9761;SDS011;4920;49.594;11.022;2024-01-30T12:28:11;19.50;;;12.77;;
9761;SDS011;4920;49.594;11.022;2024-01-30T12:30:42;19.17;;;13.23;;
9761;SDS011;4920;49.594;11.022;2024-01-30T12:33:15;17.23;;;12.13;;
9761;SDS011;4920;49.594;11.022;2024-01-30T12:35:48;19.77;;;12.60;;
9761;SDS011;4920;49.594;11.022;2024-01-30T12:38:28;17.20;;;12.33;;
9761;SDS011;4920;49.594;11.022;2024-01-30T12:40:59;16.03;;;12.27;;
9761;SDS011;4920;49.594;11.022;2024-01-30T12:43:29;16.77;;;12.77;;
9761;SDS011;4920;49.594;11.022;2024-01-30T12:46:05;21.53;;;13.13;;
9761;SDS011;4920;49.594;11.022;2024-01-30T12:48:34;19.33;;;13.27;;
9761;SDS011;4920;49.594;11.022;2024-01-30T12:51:03;17.67;;;12.80;;
9761;SDS011;4920;49.594;11.022;2024-01-30T12:53:32;18.53;;;12.20;;
9761;SDS011;4920;49.594;11.022;2024-01-30T12:56:03;18.10;;;13.23;;
9761;SDS011;4920;49.594;11.022;2024-01-30T12:58:32;17.27;;;12.77;;
9761;SDS011;4920;49.594;11.022;2024-01-30T13:01:01;18.40;;;12.80;;
9761;SDS011;4920;49.594;11.022;2024-01-30T13:03:31;18.20;;;12.10;;
9761;SDS011;4920;49.594;11.022;2024-01-30T13:06:03;20.07;;;12.13;;
9761;SDS011;4920;49.594;11.022;2024-01-30T13:08:32;21.10;;;12.47;;
9761;SDS011;4920;49.594;11.022;2024-01-30T13:11:03;15.93;;;11.43;;
9761;SDS011;4920;49.594;11.022;2024-01-30T13:13:36;18.27;;;12.53;;
9761;SDS011;4920;49.594;11.022;2024-01-30T13:16:06;23.23;;;13.27;;
9761;SDS011;4920;49.594;11.022;2024-01-30T13:18:35;19.10;;;13.43;;
9761;SDS011;4920;49.594;11.022;2024-01-30T13:21:05;15.90;;;12.03;;
9761;SDS011;4920;49.594;11.022;2024-01-30T13:23:34;21.10;;;11.97;;
9761;SDS011;4920;49.594;11.022;2024-01-30T13:26:05;19.70;;;12.30;;
9761;SDS011;4920;49.594;11.022;2024-01-30T13:28:34;18.57;;;12.57;;
9761;SDS011;4920;49.594;11.022;2024-01-30T13:31:03;23.90;;;13.20;;
9761;SDS011;4920;49.594;11.022;2024-01-30T13:33:33;17.20;;;12.23;;
9761;SDS011;4920;49.594;11.022;2024-01-30T13:36:02;20.88;;;12.88;;
9761;SDS011;4920;49.594;11.022;2024-01-30T13:38:31;19.45;;;11.63;;
9761;SDS011;4920;49.594;11.022;2024-01-30T13:41:00;23.15;;;12.77;;
9761;SDS011;4920;49.594;11.022;2024-01-30T13:43:31;18.48;;;11.88;;
9761;SDS011;4920;49.594;11.022;2024-01-30T13:46:00;20.57;;;12.27;;
9761;SDS011;4920;49.594;11.022;2024-01-30T13:48:30;17.95;;;12.15;;
9761;SDS011;4920;49.594;11.022;2024-01-30T13:50:59;19.75;;;12.93;;
9761;SDS011;4920;49.594;11.022;2024-01-30T13:53:28;17.63;;;11.80;;
9761;SDS011;4920;49.594;11.022;2024-01-30T13:55:57;18.87;;;11.90;;
9761;SDS011;4920;49.594;11.022;2024-01-30T13:58:26;17.50;;;12.15;;
9761;SDS011;4920;49.594;11.022;2024-01-30T14:00:57;15.53;;;11.53;;
9761;SDS011;4920;49.594;11.022;2024-01-30T14:03:26;16.77;;;12.07;;
9761;SDS011;4920;49.594;11.022;2024-01-30T14:05:55;17.13;;;12.03;;
9761;SDS011;4920;49.594;11.022;2024-01-30T14:08:25;23.35;;;12.75;;
9761;SDS011;4920;49.594;11.022;2024-01-30T14:10:55;19.30;;;11.67;;
9761;SDS011;4920;49.594;11.022;2024-01-30T14:13:24;15.77;;;11.90;;
9761;SDS011;4920;49.594;11.022;2024-01-30T14:15:53;15.13;;;12.00;;
9761;SDS011;4920;49.594;11.022;2024-01-30T14:18:26;22.40;;;12.87;;
9761;SDS011;4920;49.594;11.022;2024-01-30T14:20:55;23.60;;;12.40;;
9761;SDS011;4920;49.594;11.022;2024-01-30T14:23:24;20.57;;;13.63;;
9761;SDS011;4920;49.594;11.022;2024-01-30T14:25:53;22.53;;;13.37;;
9761;SDS011;4920;49.594;11.022;2024-01-30T14:28:22;15.27;;;11.40;;
9761;SDS011;4920;49.594;11.022;2024-01-30T14:30:51;17.17;;;11.83;;
9761;SDS011;4920;49.594;11.022;2024-01-30T14:33:19;17.83;;;12.07;;
9761;SDS011;4920;49.594;11.022;2024-01-30T14:35:50;23.50;;;12.63;;
9761;SDS011;4920;49.594;11.022;2024-01-30T14:38:19;19.37;;;11.47;;
9761;SDS011;4920;49.594;11.022;2024-01-30T14:40:48;18.60;;;11.70;;
9761;SDS011;4920;49.594;11.022;2024-01-30T14:43:16;20.00;;;12.10;;
9761;SDS011;4920;49.594;11.022;2024-01-30T14:45:45;15.80;;;12.03;;
9761;SDS011;4920;49.594;11.022;2024-01-30T14:48:16;19.60;;;12.50;;
9761;SDS011;4920;49.594;11.022;2024-01-30T14:50:45;18.20;;;12.77;;
9761;SDS011;4920;49.594;11.022;2024-01-30T14:53:16;23.67;;;12.67;;
9761;SDS011;4920;49.594;11.022;2024-01-30T14:55:45;24.00;;;13.63;;
9761;SDS011;4920;49.594;11.022;2024-01-30T14:58:14;20.83;;;13.60;;